Time;durP1;ratioP1;P1;durP2;ratioP2;P2;SDS_P1;SDS_P2;PMS_P1;PMS_P2;Temp;Humidity;BMP_temperature;BMP_pressure;BME280_temperature;BME280_humidity;BME280_pressure;Samples;Min_cycle;Max_cycle;Signal;HPM_P1;HPM_P2
2023/02/01 00:01:54;;;;;;;22.13;4.70;;;;;;;;;;4421467;32;19933;-72
2023/02/01 00:04:19;;;;;;;;;;;;;;;;;;4422465;32;20046;-73
2023/02/01 00:06:44;;;;;;;22.20;4.53;;;;;;;;;;4420210;32;19993;-72
2023/02/01 00:09:09;;;;;;;;;;;;;;;;;;4421482;32;20433;-72
2023/02/01 00:11:35;;;;;;;33.80;5.15;;;;;;;;;;4420872;32;19982;-73
2023/02/01 00:14:00;;;;;;;;;;;;;;;;;;4420967;32;20072;-73
2023/02/01 00:16:26;;;;;;;27.87;4.75;;;;;;;;;;4421907;32;19959;-73
2023/02/01 00:18:55;;;;;;;30.15;4.43;;;;;;;;;;4422047;32;20090;-72
2023/02/01 00:21:21;;;;;;;27.00;4.78;;;;;;;;;;4421464;32;20082;-72
2023/02/01 00:23:46;;;;;;;;;;;;;;;;;;4422325;32;20408;-74
2023/02/01 00:26:31;;;;;;;20.37;4.40;;;;;;;;;;4420606;32;19961;-71
2023/02/01 00:28:57;;;;;;;19.45;4.40;;;;;;;;;;4419566;32;20133;-72
2023/02/01 00:31:22;;;;;;;;;;;;;;;;;;4422748;32;20029;-71
2023/02/01 00:33:48;;;;;;;23.08;4.30;;;;;;;;;;4421176;32;19955;-72
2023/02/01 00:36:13;;;;;;;;;;;;;;;;;;4420831;32;20137;-72
2023/02/01 00:38:38;;;;;;;25.37;5.00;;;;;;;;;;4422322;32;20321;-72
2023/02/01 00:41:03;;;;;;;;;;;;;;;;;;4422724;32;20527;-73
2023/02/01 00:43:30;;;;;;;28.85;5.53;;;;;;;;;;4411044;32;20333;-73
2023/02/01 00:45:55;;;;;;;25.52;4.82;;;;;;;;;;4407177;32;20126;-74
2023/02/01 00:48:20;;;;;;;;;;;;;;;;;;4407506;32;20026;-72
2023/02/01 00:50:45;;;;;;;21.58;4.40;;;;;;;;;;4406565;32;19933;-73
2023/02/01 00:53:10;;;;;;;;;;;;;;;;;;4411894;32;20133;-73
2023/02/01 00:55:35;;;;;;;24.02;5.15;;;;;;;;;;4421241;32;20024;-72
2023/02/01 00:58:01;;;;;;;;;;;;;;;;;;4422713;32;20137;-71
2023/02/01 01:00:26;;;;;;;28.17;4.87;;;;;;;;;;4421971;32;19964;-73
2023/02/01 01:02:51;;;;;;;21.95;3.97;;;;;;;;;;4410393;32;20089;-73
2023/02/01 01:05:16;;;;;;;;;;;;;;;;;;4405131;32;20391;-71
2023/02/01 01:07:41;;;;;;;18.98;4.82;;;;;;;;;;4405306;32;19961;-71
2023/02/01 01:10:07;;;;;;;;;;;;;;;;;;4407947;32;20527;-71
2023/02/01 01:12:32;;;;;;;23.98;4.96;;;;;;;;;;4411579;32;19956;-72
2023/02/01 01:14:57;;;;;;;;;;;;;;;;;;4407756;32;20101;-71
2023/02/01 01:17:22;;;;;;;27.52;5.35;;;;;;;;;;4415528;32;20001;-73
2023/02/01 01:19:47;;;;;;;;;;;;;;;;;;4421356;32;20155;-72
2023/02/01 01:22:13;;;;;;;22.40;6.18;;;;;;;;;;4421652;32;19941;-73
2023/02/01 01:24:38;;;;;;;;;;;;;;;;;;4419088;32;20533;-73
2023/02/01 01:27:03;;;;;;;25.65;5.18;;;;;;;;;;4422096;32;20346;-73
2023/02/01 01:29:28;;;;;;;;;;;;;;;;;;4421624;32;20022;-72
2023/02/01 01:31:53;;;;;;;35.28;6.60;;;;;;;;;;4422203;32;19937;-73
2023/02/01 01:34:18;;;;;;;;;;;;;;;;;;4421788;32;20129;-73
2023/02/01 01:36:44;;;;;;;32.47;5.93;;;;;;;;;;4421755;32;19933;-72
2023/02/01 01:39:09;;;;;;;;;;;;;;;;;;4418743;32;20034;-72
2023/02/01 01:41:34;;;;;;;22.35;5.15;;;;;;;;;;4421001;32;19941;-73
2023/02/01 01:43:59;;;;;;;;;;;;;;;;;;4413040;32;20166;-73
2023/02/01 01:46:30;;;;;;;29.02;5.70;;;;;;;;;;4406242;32;19965;-72
2023/02/01 01:49:17;;;;;;;26.35;5.12;;;;;;;;;;4409165;32;20096;-73
2023/02/01 01:52:12;;;;;;;32.97;6.30;;;;;;;;;;4409949;32;20060;-73
2023/02/01 01:54:39;;;;;;;29.20;5.18;;;;;;;;;;4399860;32;20033;-73
2023/02/01 01:57:08;;;;;;;35.08;6.00;;;;;;;;;;4422092;32;20029;-72
2023/02/01 01:59:35;;;;;;;34.42;5.70;;;;;;;;;;4423582;32;20049;-73
2023/02/01 02:02:01;;;;;;;38.90;6.95;;;;;;;;;;4421992;32;20030;-74
2023/02/01 02:04:26;;;;;;;;;;;;;;;;;;4423124;32;20064;-72
2023/02/01 02:06:55;;;;;;;27.98;4.40;;;;;;;;;;4421365;32;20331;-73
2023/02/01 02:09:20;;;;;;;25.73;6.12;;;;;;;;;;4422794;32;20039;-72
2023/02/01 02:11:45;;;;;;;;;;;;;;;;;;4423729;32;20136;-72
2023/02/01 02:14:13;;;;;;;29.40;5.15;;;;;;;;;;4424138;32;19968;-72
2023/02/01 02:16:38;;;;;;;31.95;5.78;;;;;;;;;;4422084;32;20538;-73
2023/02/01 02:19:04;;;;;;;;;;;;;;;;;;4423775;32;20055;-72
2023/02/01 02:21:29;;;;;;;34.15;6.22;;;;;;;;;;4422413;32;19945;-72
2023/02/01 02:23:54;;;;;;;;;;;;;;;;;;4422720;32;20482;-71
2023/02/01 02:26:44;;;;;;;25.67;5.07;;;;;;;;;;4422523;32;19937;-72
2023/02/01 02:29:17;;;;;;;28.67;5.25;;;;;;;;;;4423004;32;20042;-72
2023/02/01 02:31:49;;;;;;;26.62;4.95;;;;;;;;;;4421621;32;20056;-73
2023/02/01 02:34:21;;;;;;;23.95;5.28;;;;;;;;;;4426535;32;20038;-72
2023/02/01 02:36:47;;;;;;;28.08;5.95;;;;;;;;;;4421451;32;20022;-71
2023/02/01 02:39:12;;;;;;;;;;;;;;;;;;4424721;32;20055;-72
2023/02/01 02:47:30;;;;;;;28.65;5.30;;;;;;;;;;4423708;32;20210;-72
2023/02/01 02:55:30;;;;;;;;;;;;;;;;;;4423532;32;20056;-72
2023/02/01 03:06:12;;;;;;;19.90;4.85;;;;;;;;;;4423326;32;20482;-72
2023/02/01 03:08:37;;;;;;;26.37;4.47;;;;;;;;;;4421177;32;20022;-73
2023/02/01 03:11:03;;;;;;;;;;;;;;;;;;4422868;32;20026;-72
2023/02/01 03:13:40;;;;;;;29.75;4.87;;;;;;;;;;4423940;32;20018;-72
2023/02/01 03:16:08;;;;;;;25.05;5.53;;;;;;;;;;4423671;32;20098;-73
2023/02/01 03:18:34;;;;;;;21.00;5.10;;;;;;;;;;4419785;32;20144;-73
2023/02/01 03:20:59;;;;;;;;;;;;;;;;;;4423500;32;20432;-73
2023/02/01 03:23:27;;;;;;;22.77;5.05;;;;;;;;;;4422839;32;19974;-72
2023/02/01 03:25:53;;;;;;;31.80;6.60;;;;;;;;;;4419729;32;20599;-72
2023/02/01 03:28:20;;;;;;;;;;;;;;;;;;4422372;32;20062;-72
2023/02/01 03:30:46;;;;;;;27.52;4.75;;;;;;;;;;4422105;32;19968;-72
2023/02/01 03:33:20;;;;;;;;;;;;;;;;;;4422900;32;20096;-72
2023/02/01 03:35:54;;;;;;;35.47;5.90;;;;;;;;;;4421849;32;19968;-72
2023/02/01 03:38:25;;;;;;;25.85;5.18;;;;;;;;;;4423468;32;20086;-73
2023/02/01 03:41:00;;;;;;;35.92;5.60;;;;;;;;;;4423077;32;20037;-72
2023/02/01 03:43:29;;;;;;;23.05;5.70;;;;;;;;;;4423143;32;20129;-73
2023/02/01 03:45:58;;;;;;;24.95;5.78;;;;;;;;;;4420814;32;20042;-73
2023/02/01 03:48:24;;;;;;;29.65;5.18;;;;;;;;;;4419884;32;20470;-72
2023/02/01 03:50:54;;;;;;;39.28;6.05;;;;;;;;;;4421527;32;20030;-72
2023/02/01 03:53:21;;;;;;;29.45;4.93;;;;;;;;;;4421265;32;20049;-73
2023/02/01 03:55:47;;;;;;;27.65;6.18;;;;;;;;;;4421929;32;20068;-72
2023/02/01 03:58:12;;;;;;;;;;;;;;;;;;4421319;32;20440;-72
2023/02/01 04:00:38;;;;;;;27.95;4.60;;;;;;;;;;4414278;32;19937;-72
2023/02/01 04:03:03;;;;;;;;;;;;;;;;;;4405262;32;20052;-72
2023/02/01 04:05:30;;;;;;;29.80;6.30;;;;;;;;;;4404639;32;19930;-73
2023/02/01 04:07:55;;;;;;;27.85;5.15;;;;;;;;;;4407614;32;20076;-73
2023/02/01 04:10:20;;;;;;;;;;;;;;;;;;4406525;32;20079;-73
2023/02/01 04:12:45;;;;;;;28.25;6.85;;;;;;;;;;4406106;32;19971;-73
2023/02/01 04:15:10;;;;;;;;;;;;;;;;;;4406580;32;20134;-73
2023/02/01 04:17:35;;;;;;;18.55;4.78;;;;;;;;;;4405597;32;20303;-73
2023/02/01 04:20:01;;;;;;;;;;;;;;;;;;4407406;32;20520;-73
2023/02/01 04:22:26;;;;;;;28.48;6.47;;;;;;;;;;4409306;32;20003;-73
2023/02/01 04:24:51;;;;;;;;;;;;;;;;;;4420782;32;20030;-73
2023/02/01 04:27:16;;;;;;;25.35;5.25;;;;;;;;;;4419452;32;19952;-72
2023/02/01 04:29:41;;;;;;;;;;;;;;;;;;4422831;32;20117;-73
2023/02/01 04:32:07;;;;;;;21.17;4.03;;;;;;;;;;4420240;32;19953;-73
2023/02/01 04:34:32;;;;;;;;;;;;;;;;;;4422150;32;20130;-73
2023/02/01 04:36:57;;;;;;;24.25;4.70;;;;;;;;;;4422533;32;20006;-73
2023/02/01 04:39:22;;;;;;;27.30;5.65;;;;;;;;;;4421220;32;20375;-72
2023/02/01 04:41:47;;;;;;;28.05;5.35;;;;;;;;;;4420912;32;20053;-72
2023/02/01 04:44:12;;;;;;;;;;;;;;;;;;4419773;32;20111;-72
2023/02/01 04:46:38;;;;;;;22.75;4.50;;;;;;;;;;4420726;32;19981;-73
2023/02/01 04:49:03;;;;;;;;;;;;;;;;;;4419968;32;20460;-72
2023/02/01 04:51:29;;;;;;;18.23;4.75;;;;;;;;;;4420641;32;20005;-72
2023/02/01 04:53:55;;;;;;;18.70;5.43;;;;;;;;;;4422230;32;20061;-72
2023/02/01 04:56:20;;;;;;;;;;;;;;;;;;4420898;32;20079;-71
2023/02/01 04:58:45;;;;;;;26.52;5.37;;;;;;;;;;4421110;32;19949;-72
2023/02/01 05:01:10;;;;;;;;;;;;;;;;;;4422518;32;20101;-73
2023/02/01 05:03:36;;;;;;;29.60;6.07;;;;;;;;;;4419782;32;20007;-73
2023/02/01 05:06:03;;;;;;;;;;;;;;;;;;4421811;32;20431;-73
2023/02/01 05:08:29;;;;;;;27.95;5.37;;;;;;;;;;4419713;32;19937;-72
2023/02/01 05:10:54;;;;;;;;;;;;;;;;;;4422277;32;20478;-73
2023/02/01 05:16:04;;;;;;;25.65;4.50;;;;;;;;;;4431576;32;20163;-73
2023/02/01 05:18:29;;;;;;;;;;;;;;;;;;4423591;32;20102;-73
2023/02/01 05:20:54;;;;;;;24.05;4.00;;;;;;;;;;4415196;32;19953;-73
2023/02/01 05:23:19;;;;;;;;;;;;;;;;;;4410009;32;20431;-72
2023/02/01 05:25:44;;;;;;;36.65;5.45;;;;;;;;;;4415846;32;20330;-72
2023/02/01 05:28:09;;;;;;;;;;;;;;;;;;4407211;32;20154;-72
2023/02/01 05:30:35;;;;;;;28.10;5.25;;;;;;;;;;4406400;32;19934;-72
2023/02/01 05:33:00;;;;;;;;;;;;;;;;;;4405062;32;20030;-72
2023/02/01 05:35:25;;;;;;;22.08;4.70;;;;;;;;;;4415573;32;19996;-73
2023/02/01 05:37:50;;;;;;;;;;;;;;;;;;4421468;32;20466;-72
2023/02/01 05:40:16;;;;;;;26.35;5.55;;;;;;;;;;4422979;32;19937;-73
2023/02/01 05:42:41;;;;;;;;;;;;;;;;;;4422936;32;20159;-73
2023/02/01 05:45:07;;;;;;;23.30;5.35;;;;;;;;;;4417440;32;19973;-73
2023/02/01 05:47:32;;;;;;;30.90;6.25;;;;;;;;;;4419584;32;20172;-73
2023/02/01 05:49:57;;;;;;;;;;;;;;;;;;4421750;32;20042;-72
2023/02/01 05:52:22;;;;;;;27.92;6.28;;;;;;;;;;4420296;32;19941;-72
2023/02/01 05:54:48;;;;;;;;;;;;;;;;;;4422115;32;20462;-73
2023/02/01 05:57:13;;;;;;;29.02;5.78;;;;;;;;;;4420931;32;19937;-72
2023/02/01 05:59:40;;;;;;;;;;;;;;;;;;4405857;32;20071;-72
2023/02/01 06:02:06;;;;;;;25.70;6.28;;;;;;;;;;4420629;32;19973;-72
2023/02/01 06:04:31;;;;;;;26.70;5.18;;;;;;;;;;4421433;32;20419;-72
2023/02/01 06:06:56;;;;;;;;;;;;;;;;;;4418632;32;20431;-73
2023/02/01 06:09:22;;;;;;;22.60;5.37;;;;;;;;;;4418820;32;19944;-73
2023/02/01 06:11:47;;;;;;;18.80;4.37;;;;;;;;;;4420065;32;20367;-73
2023/02/01 06:14:12;;;;;;;;;;;;;;;;;;4418842;32;20052;-73
2023/02/01 06:16:37;;;;;;;27.42;6.20;;;;;;;;;;4421692;32;20065;-72
2023/02/01 06:19:02;;;;;;;;;;;;;;;;;;4420628;32;20022;-73
2023/02/01 06:21:27;;;;;;;32.08;5.50;;;;;;;;;;4421282;32;19956;-72
2023/02/01 06:23:53;;;;;;;;;;;;;;;;;;4418789;32;20026;-72
2023/02/01 06:26:18;;;;;;;32.78;4.68;;;;;;;;;;4421315;32;19977;-72
2023/02/01 06:28:43;;;;;;;;;;;;;;;;;;4418752;32;20412;-73
2023/02/01 06:31:08;;;;;;;24.45;5.40;;;;;;;;;;4421375;32;19948;-73
2023/02/01 06:33:33;;;;;;;;;;;;;;;;;;4420925;32;20196;-73
2023/02/01 06:35:59;;;;;;;38.70;5.87;;;;;;;;;;4424049;32;19964;-72
2023/02/01 06:38:26;;;;;;;33.55;5.80;;;;;;;;;;4420739;32;20070;-74
2023/02/01 06:40:54;;;;;;;25.95;4.72;;;;;;;;;;4414232;32;20095;-73
2023/02/01 06:43:25;;;;;;;22.23;4.68;;;;;;;;;;4423737;32;20033;-73
2023/02/01 06:45:50;;;;;;;29.55;5.57;;;;;;;;;;4413036;32;20443;-73
2023/02/01 06:48:15;;;;;;;;;;;;;;;;;;4409455;32;20125;-73
2023/02/01 06:50:41;;;;;;;28.40;5.57;;;;;;;;;;4406556;32;19938;-73
2023/02/01 06:53:07;;;;;;;20.02;4.70;;;;;;;;;;4407340;32;20187;-73
2023/02/01 06:55:32;;;;;;;;;;;;;;;;;;4405773;32;20026;-72
2023/02/01 06:57:57;;;;;;;22.37;6.37;;;;;;;;;;4406651;32;19937;-73
2023/02/01 07:00:22;;;;;;;;;;;;;;;;;;4405907;32;20145;-72
2023/02/01 07:02:47;;;;;;;24.48;5.60;;;;;;;;;;4408525;32;19937;-73
2023/02/01 07:05:12;;;;;;;;;;;;;;;;;;4407488;32;20207;-72
2023/02/01 07:07:38;;;;;;;28.17;4.70;;;;;;;;;;4415193;32;19948;-72
2023/02/01 07:10:03;;;;;;;;;;;;;;;;;;4420696;32;20477;-73
2023/02/01 07:12:28;;;;;;;25.26;5.48;;;;;;;;;;4422953;32;20295;-72
2023/02/01 07:14:53;;;;;;;;;;;;;;;;;;4421718;32;20076;-72
2023/02/01 07:17:20;;;;;;;17.23;4.25;;;;;;;;;;4422634;32;19940;-72
2023/02/01 07:19:45;;;;;;;20.55;4.15;;;;;;;;;;4420192;32;20178;-72
2023/02/01 07:22:10;;;;;;;;;;;;;;;;;;4423132;32;20030;-72
2023/02/01 07:24:36;;;;;;;23.73;5.03;;;;;;;;;;4421266;32;19989;-72
2023/02/01 07:27:01;;;;;;;22.62;5.00;;;;;;;;;;4408313;32;20134;-71
2023/02/01 07:29:27;;;;;;;;;;;;;;;;;;4407183;32;20034;-71
2023/02/01 07:31:52;;;;;;;23.10;4.12;;;;;;;;;;4406000;32;20332;-72
2023/02/01 07:34:17;;;;;;;;;;;;;;;;;;4405206;32;20122;-71
2023/02/01 07:36:42;;;;;;;23.35;3.72;;;;;;;;;;4408403;32;20362;-71
2023/02/01 07:39:07;;;;;;;;;;;;;;;;;;4408542;32;20026;-71
2023/02/01 07:41:33;;;;;;;19.75;4.37;;;;;;;;;;4421329;32;19952;-72
2023/02/01 07:43:58;;;;;;;;;;;;;;;;;;4418866;32;20404;-72
2023/02/01 07:46:23;;;;;;;21.98;3.60;;;;;;;;;;4404674;32;19984;-72
2023/02/01 07:48:48;;;;;;;;;;;;;;;;;;4406325;32;20144;-72
2023/02/01 07:51:15;;;;;;;28.55;5.72;;;;;;;;;;4406342;32;19934;-73
2023/02/01 07:53:41;;;;;;;26.17;5.75;;;;;;;;;;4404426;32;20118;-72
2023/02/01 07:56:06;;;;;;;;;;;;;;;;;;4406274;32;20130;-72
2023/02/01 07:58:31;;;;;;;32.90;5.28;;;;;;;;;;4406606;32;19948;-72
2023/02/01 08:03:40;;;;;;;23.90;5.55;;;;;;;;;;4407497;32;19933;-71
2023/02/01 08:06:06;;;;;;;;;;;;;;;;;;4406217;32;20136;-72
2023/02/01 08:08:31;;;;;;;41.10;5.80;;;;;;;;;;4404216;32;19945;-72
2023/02/01 08:10:56;;;;;;;;;;;;;;;;;;4418150;32;20364;-73
2023/02/01 08:13:21;;;;;;;30.50;4.82;;;;;;;;;;4415208;32;19997;-72
2023/02/01 08:15:46;;;;;;;;;;;;;;;;;;4418854;32;20167;-72
2023/02/01 08:18:15;;;;;;;31.37;5.80;;;;;;;;;;4421295;32;19937;-72
2023/02/01 08:20:43;;;;;;;26.75;5.53;;;;;;;;;;4420776;32;20416;-71
2023/02/01 08:23:08;;;;;;;25.92;4.65;;;;;;;;;;4421374;32;20038;-72
2023/02/01 08:25:34;;;;;;;;;;;;;;;;;;4422567;32;20336;-71
2023/02/01 08:28:00;;;;;;;28.42;4.90;;;;;;;;;;4420008;32;19973;-72
2023/02/01 08:30:27;;;;;;;;;;;;;;;;;;4420225;32;20078;-72
2023/02/01 08:32:52;;;;;;;27.23;5.32;;;;;;;;;;4420866;32;19937;-73
2023/02/01 08:35:17;;;;;;;;;;;;;;;;;;4420916;32;20048;-73
2023/02/01 08:37:42;;;;;;;19.52;5.22;;;;;;;;;;4422127;32;20315;-72
2023/02/01 08:40:08;;;;;;;;;;;;;;;;;;4414272;32;20189;-72
2023/02/01 08:42:51;;;;;;;25.23;4.95;;;;;;;;;;4421464;32;20247;-72
2023/02/01 08:45:21;;;;;;;24.10;4.95;;;;;;;;;;4421201;32;20069;-72
2023/02/01 08:47:46;;;;;;;28.12;4.55;;;;;;;;;;4420534;32;20077;-74
2023/02/01 08:50:12;;;;;;;;;;;;;;;;;;4421470;32;20493;-72
2023/02/01 08:52:37;;;;;;;25.95;6.57;;;;;;;;;;4419727;32;19996;-72
2023/02/01 08:55:02;;;;;;;;;;;;;;;;;;4407857;32;20444;-72
2023/02/01 08:57:27;;;;;;;62.45;8.95;;;;;;;;;;4405712;32;19981;-72
2023/02/01 08:59:52;;;;;;;;;;;;;;;;;;4407176;32;20122;-72
2023/02/01 09:02:17;;;;;;;25.33;4.20;;;;;;;;;;4419227;32;20018;-72
2023/02/01 09:04:43;;;;;;;25.75;4.25;;;;;;;;;;4420307;32;20075;-71
2023/02/01 09:07:08;;;;;;;;;;;;;;;;;;4422697;32;20407;-72
2023/02/01 09:09:33;;;;;;;34.67;6.35;;;;;;;;;;4420448;32;19937;-72
2023/02/01 09:11:58;;;;;;;;;;;;;;;;;;4421567;32;20045;-72
2023/02/01 09:14:24;;;;;;;26.45;6.00;;;;;;;;;;4419142;32;19937;-73
2023/02/01 09:16:49;;;;;;;25.67;5.00;;;;;;;;;;4421122;32;20098;-72
2023/02/01 09:19:14;;;;;;;;;;;;;;;;;;4424119;32;20060;-73
2023/02/01 09:21:39;;;;;;;29.92;6.82;;;;;;;;;;4412300;32;19937;-73
2023/02/01 09:24:05;;;;;;;31.33;4.60;;;;;;;;;;4405392;32;20423;-73
2023/02/01 09:26:30;;;;;;;;;;;;;;;;;;4404295;32;20027;-72
2023/02/01 09:28:55;;;;;;;26.45;4.70;;;;;;;;;;4403873;32;19956;-74
2023/02/01 09:31:20;;;;;;;23.60;4.97;;;;;;;;;;4405313;32;20099;-73
2023/02/01 09:33:46;;;;;;;;;;;;;;;;;;4408904;32;20021;-71
2023/02/01 09:36:11;;;;;;;23.12;5.47;;;;;;;;;;4421890;32;19977;-71
2023/02/01 09:38:36;;;;;;;;;;;;;;;;;;4421787;32;20045;-72
2023/02/01 09:41:06;;;;;;;28.12;4.85;;;;;;;;;;4421875;32;20024;-72
2023/02/01 09:43:52;;;;;;;23.20;4.50;;;;;;;;;;4421599;32;20313;-72
2023/02/01 09:46:21;;;;;;;24.37;5.97;;;;;;;;;;4420979;32;20034;-73
2023/02/01 09:48:46;;;;;;;33.05;5.53;;;;;;;;;;4415019;32;20072;-73
2023/02/01 09:51:12;;;;;;;;;;;;;;;;;;4405875;32;20128;-71
2023/02/01 09:53:42;;;;;;;29.78;5.52;;;;;;;;;;4405782;32;19938;-73
2023/02/01 09:56:13;;;;;;;27.85;6.22;;;;;;;;;;4404170;32;20026;-70
2023/02/01 09:58:51;;;;;;;29.33;5.00;;;;;;;;;;4416021;32;20034;-72
2023/02/01 10:01:22;;;;;;;26.27;5.30;;;;;;;;;;4422533;32;20088;-73
2023/02/01 10:03:48;;;;;;;35.45;6.12;;;;;;;;;;4417176;32;20030;-73
2023/02/01 10:06:13;;;;;;;;;;;;;;;;;;4421609;32;20471;-74
2023/02/01 10:09:00;;;;;;;20.52;5.15;;;;;;;;;;4419776;32;19937;-72
2023/02/01 10:11:48;;;;;;;19.52;4.32;;;;;;;;;;4424031;32;20125;-72
2023/02/01 10:14:20;;;;;;;27.45;4.97;;;;;;;;;;4424854;32;20022;-73
2023/02/01 10:16:54;;;;;;;24.65;5.22;;;;;;;;;;4423962;32;20052;-71
2023/02/01 10:19:19;;;;;;;29.35;5.45;;;;;;;;;;4424017;32;20023;-73
2023/02/01 10:21:44;;;;;;;;;;;;;;;;;;4423954;32;20064;-73
2023/02/01 10:24:34;;;;;;;26.55;4.85;;;;;;;;;;4424123;32;19998;-72
2023/02/01 10:27:13;;;;;;;27.75;5.22;;;;;;;;;;4423776;32;20137;-72
2023/02/01 10:29:43;;;;;;;27.75;5.87;;;;;;;;;;4422703;32;20083;-72
2023/02/01 10:32:19;;;;;;;17.37;3.62;;;;;;;;;;4423135;32;20080;-72
2023/02/01 10:34:48;;;;;;;27.33;4.97;;;;;;;;;;4416268;32;20044;-72
2023/02/01 10:37:24;;;;;;;29.23;5.05;;;;;;;;;;4423309;32;20038;-72
2023/02/01 10:39:49;;;;;;;30.70;4.77;;;;;;;;;;4423594;32;20054;-72
2023/02/01 10:42:14;;;;;;;;;;;;;;;;;;4421857;32;20600;-73
2023/02/01 10:44:43;;;;;;;25.08;6.32;;;;;;;;;;4423258;32;19933;-72
2023/02/01 10:47:09;;;;;;;32.05;5.30;;;;;;;;;;4422670;32;20133;-72
2023/02/01 10:49:34;;;;;;;;;;;;;;;;;;4423748;32;20389;-73
2023/02/01 10:52:12;;;;;;;32.03;6.03;;;;;;;;;;4422192;32;20364;-73
2023/02/01 10:54:38;;;;;;;42.20;5.68;;;;;;;;;;4422783;32;20057;-72
2023/02/01 10:57:07;;;;;;;26.67;5.68;;;;;;;;;;4422873;32;20424;-72
2023/02/01 10:59:36;;;;;;;25.80;6.15;;;;;;;;;;4424269;32;20029;-72
2023/02/01 11:02:05;;;;;;;36.67;6.70;;;;;;;;;;4412215;32;20050;-71
2023/02/01 11:04:33;;;;;;;21.30;5.15;;;;;;;;;;4414427;32;20053;-72
2023/02/01 11:07:23;;;;;;;35.30;5.82;;;;;;;;;;4412901;32;20042;-72
2023/02/01 11:09:50;;;;;;;28.58;4.90;;;;;;;;;;4412254;32;20049;-72
2023/02/01 11:12:24;;;;;;;21.40;4.10;;;;;;;;;;4410161;32;20407;-71
2023/02/01 11:14:50;;;;;;;21.45;4.00;;;;;;;;;;4407119;32;20057;-72
2023/02/01 11:17:17;;;;;;;;;;;;;;;;;;4407267;32;20368;-72
2023/02/01 11:19:42;;;;;;;;;;;;;;;;;;4407395;32;20386;-72
2023/02/01 11:22:10;;;;;;;31.12;6.00;;;;;;;;;;4406408;32;20314;-72
2023/02/01 11:24:35;;;;;;;46.47;6.78;;;;;;;;;;4412156;32;20153;-71
2023/02/01 11:27:01;;;;;;;;;;;;;;;;;;4420393;32;20083;-71
2023/02/01 11:29:36;;;;;;;24.48;5.00;;;;;;;;;;4423196;32;20305;-72
2023/02/01 11:32:02;;;;;;;29.10;5.68;;;;;;;;;;4420713;32;20041;-72
2023/02/01 11:34:27;;;;;;;;;;;;;;;;;;4421481;32;20128;-73
2023/02/01 11:36:54;;;;;;;25.10;4.78;;;;;;;;;;4421556;32;19948;-72
2023/02/01 11:39:25;;;;;;;26.02;5.12;;;;;;;;;;4421873;32;20197;-72
2023/02/01 11:42:11;;;;;;;24.23;6.28;;;;;;;;;;4422485;32;20370;-72
2023/02/01 11:44:37;;;;;;;26.02;4.25;;;;;;;;;;4422178;32;20033;-72
2023/02/01 11:47:19;;;;;;;31.05;5.30;;;;;;;;;;4422815;32;20034;-72
2023/02/01 11:49:45;;;;;;;28.75;5.30;;;;;;;;;;4406706;32;20030;-72
2023/02/01 11:52:10;;;;;;;;;;;;;;;;;;4411494;32;20086;-72
2023/02/01 11:54:35;;;;;;;19.08;4.12;;;;;;;;;;4419798;32;20322;-73
2023/02/01 11:57:00;;;;;;;;;;;;;;;;;;4422174;32;20068;-72
2023/02/01 11:59:45;;;;;;;18.08;4.45;;;;;;;;;;4420823;32;19967;-73
2023/02/01 12:02:12;;;;;;;23.80;6.35;;;;;;;;;;4416372;32;20137;-72
2023/02/01 12:04:58;;;;;;;27.02;4.87;;;;;;;;;;4417653;32;20439;-72
2023/02/01 12:07:31;;;;;;;24.80;5.70;;;;;;;;;;4396875;32;20077;-72
2023/02/01 12:10:25;;;;;;;23.62;4.40;;;;;;;;;;4406664;32;20058;-72
2023/02/01 12:13:16;;;;;;;35.22;6.47;;;;;;;;;;4384787;32;20430;-72
2023/02/01 12:15:54;;;;;;;26.17;5.47;;;;;;;;;;4406308;32;20062;-72
2023/02/01 12:18:39;;;;;;;33.22;5.62;;;;;;;;;;4420719;32;20479;-72
2023/02/01 12:21:23;;;;;;;31.60;5.95;;;;;;;;;;4421233;32;20060;-72
2023/02/01 12:24:08;;;;;;;29.20;4.93;;;;;;;;;;4418494;32;20069;-72
2023/02/01 12:26:33;;;;;;;31.48;4.78;;;;;;;;;;4420558;32;20408;-71
2023/02/01 12:28:58;;;;;;;;;;;;;;;;;;4421242;32;20068;-72
2023/02/01 12:31:42;;;;;;;26.60;5.40;;;;;;;;;;4420476;32;19933;-73
2023/02/01 12:34:10;;;;;;;34.65;5.40;;;;;;;;;;4420471;32;20169;-72
2023/02/01 12:36:40;;;;;;;18.12;4.40;;;;;;;;;;4419544;32;20022;-73
2023/02/01 12:39:11;;;;;;;20.95;4.40;;;;;;;;;;4422106;32;20408;-74
2023/02/01 12:41:44;;;;;;;29.42;6.95;;;;;;;;;;4419420;32;20141;-73
2023/02/01 12:44:22;;;;;;;38.95;8.10;;;;;;;;;;4421113;32;20403;-72
2023/02/01 12:46:54;;;;;;;36.38;6.68;;;;;;;;;;4419789;32;20096;-73
2023/02/01 12:49:38;;;;;;;25.73;4.80;;;;;;;;;;4418993;32;20037;-74
2023/02/01 12:52:10;;;;;;;27.10;4.50;;;;;;;;;;4413135;32;20089;-74
2023/02/01 12:54:45;;;;;;;30.08;4.72;;;;;;;;;;4404982;32;20076;-73
2023/02/01 12:57:12;;;;;;;24.50;5.43;;;;;;;;;;4407128;32;20460;-72
2023/02/01 12:59:41;;;;;;;27.25;5.12;;;;;;;;;;4404895;32;20060;-72
2023/02/01 13:02:24;;;;;;;25.00;4.72;;;;;;;;;;4404954;32;20091;-73
2023/02/01 13:05:03;;;;;;;23.62;4.32;;;;;;;;;;4405585;32;20038;-73
2023/02/01 13:07:39;;;;;;;32.70;5.10;;;;;;;;;;4406673;32;20053;-72
2023/02/01 13:10:13;;;;;;;24.55;6.12;;;;;;;;;;4403920;32;20351;-73
2023/02/01 13:12:43;;;;;;;34.30;5.93;;;;;;;;;;4405304;32;20030;-72
2023/02/01 13:15:11;;;;;;;34.35;6.28;;;;;;;;;;4405510;32;20064;-71
2023/02/01 13:17:36;;;;;;;26.77;5.25;;;;;;;;;;4410475;32;20516;-72
2023/02/01 13:20:02;;;;;;;;;;;;;;;;;;4422105;32;20026;-71
2023/02/01 13:22:32;;;;;;;25.88;5.85;;;;;;;;;;4420907;32;19965;-73
2023/02/01 13:25:00;;;;;;;26.83;5.68;;;;;;;;;;4421253;32;20117;-73
2023/02/01 13:27:30;;;;;;;33.92;5.18;;;;;;;;;;4419494;32;20412;-72
2023/02/01 13:29:57;;;;;;;25.15;5.20;;;;;;;;;;4413075;32;20053;-72
2023/02/01 13:32:35;;;;;;;17.17;4.45;;;;;;;;;;4404851;32;20034;-73
2023/02/01 13:35:06;;;;;;;24.60;4.75;;;;;;;;;;4405050;32;20051;-73
2023/02/01 13:37:44;;;;;;;24.10;5.20;;;;;;;;;;4405643;32;20030;-72
2023/02/01 13:40:09;;;;;;;26.05;5.53;;;;;;;;;;4405483;32;20046;-72
2023/02/01 13:42:34;;;;;;;;;;;;;;;;;;4411130;32;20025;-73
2023/02/01 13:45:01;;;;;;;35.67;5.82;;;;;;;;;;4424801;32;19937;-72
2023/02/01 13:47:28;;;;;;;25.00;4.60;;;;;;;;;;4422295;32;20240;-72
2023/02/01 13:49:55;;;;;;;25.85;4.80;;;;;;;;;;4423261;32;20034;-73
2023/02/01 13:52:41;;;;;;;28.15;4.85;;;;;;;;;;4414467;32;20400;-72
2023/02/01 13:55:24;;;;;;;27.30;5.78;;;;;;;;;;4406202;32;20026;-73
2023/02/01 13:57:51;;;;;;;27.92;5.10;;;;;;;;;;4408502;32;20030;-72
2023/02/01 14:00:24;;;;;;;41.88;6.60;;;;;;;;;;4408830;32;20066;-71
2023/02/01 14:03:02;;;;;;;24.75;5.35;;;;;;;;;;4406347;32;20041;-72
2023/02/01 14:05:30;;;;;;;33.25;6.22;;;;;;;;;;4407800;32;20080;-73
2023/02/01 14:08:04;;;;;;;27.42;5.28;;;;;;;;;;4406300;32;20372;-72
2023/02/01 14:10:55;;;;;;;23.60;4.82;;;;;;;;;;4407920;32;20031;-73
2023/02/01 14:13:20;;;;;;;21.40;5.15;;;;;;;;;;4413357;32;20085;-72
2023/02/01 14:15:45;;;;;;;;;;;;;;;;;;4407850;32;20505;-73
2023/02/01 14:18:30;;;;;;;25.15;4.65;;;;;;;;;;4416106;32;19937;-73
2023/02/01 14:21:13;;;;;;;31.42;5.35;;;;;;;;;;4421540;32;20159;-74
2023/02/01 14:23:40;;;;;;;32.35;6.18;;;;;;;;;;4422184;32;20087;-73
2023/02/01 14:26:07;;;;;;;30.83;5.18;;;;;;;;;;4422659;32;20026;-72
2023/02/01 14:28:32;;;;;;;22.17;4.43;;;;;;;;;;4421341;32;20060;-73
2023/02/01 14:30:57;;;;;;;;;;;;;;;;;;4424119;32;20082;-73
2023/02/01 14:33:27;;;;;;;23.95;3.90;;;;;;;;;;4422553;32;19945;-72
2023/02/01 14:36:12;;;;;;;24.40;4.68;;;;;;;;;;4423009;32;20125;-73
2023/02/01 14:38:38;;;;;;;44.03;4.93;;;;;;;;;;4418786;32;20042;-73
2023/02/01 14:41:03;;;;;;;;;;;;;;;;;;4423289;32;20484;-71
2023/02/01 14:43:47;;;;;;;21.37;4.82;;;;;;;;;;4423518;32;19953;-71
2023/02/01 14:46:12;;;;;;;21.45;5.72;;;;;;;;;;4422124;32;20041;-73
2023/02/01 14:48:37;;;;;;;;;;;;;;;;;;4421867;32;20408;-72
2023/02/01 14:51:03;;;;;;;29.12;5.00;;;;;;;;;;4418672;32;20285;-72
2023/02/01 14:53:35;;;;;;;23.15;4.80;;;;;;;;;;4420276;32;20064;-73
2023/02/01 14:56:04;;;;;;;21.25;5.72;;;;;;;;;;4422397;32;20344;-74
2023/02/01 14:58:36;;;;;;;24.23;5.82;;;;;;;;;;4418149;32;20080;-73
2023/02/01 15:01:13;;;;;;;29.50;5.78;;;;;;;;;;4406597;32;20069;-73
2023/02/01 15:03:42;;;;;;;32.17;6.55;;;;;;;;;;4406679;32;20061;-72
2023/02/01 15:06:20;;;;;;;18.45;4.15;;;;;;;;;;4407398;32;20061;-73
2023/02/01 15:08:46;;;;;;;25.35;4.22;;;;;;;;;;4409225;32;21565;-72
2023/02/01 15:11:11;;;;;;;;;;;;;;;;;;4421221;32;20034;-74
2023/02/01 15:13:36;;;;;;;24.80;5.32;;;;;;;;;;4419596;32;20316;-73
2023/02/01 15:16:01;;;;;;;;;;;;;;;;;;4423298;32;20048;-72
2023/02/01 15:18:27;;;;;;;27.05;5.70;;;;;;;;;;4419407;32;20334;-71
2023/02/01 15:20:59;;;;;;;36.03;4.62;;;;;;;;;;4422343;32;20396;-71
2023/02/01 15:23:24;;;;;;;27.48;5.10;;;;;;;;;;4421941;32;20064;-72
2023/02/01 15:25:49;;;;;;;;;;;;;;;;;;4418022;32;20050;-72
2023/02/01 15:28:16;;;;;;;26.55;4.40;;;;;;;;;;4406156;32;19950;-72
2023/02/01 15:30:51;;;;;;;24.00;5.28;;;;;;;;;;4404980;32;20031;-72
2023/02/01 15:33:17;;;;;;;34.40;6.80;;;;;;;;;;4406523;32;20077;-73
2023/02/01 15:35:56;;;;;;;29.35;5.93;;;;;;;;;;4406751;32;20030;-73
2023/02/01 15:38:23;;;;;;;26.80;6.05;;;;;;;;;;4407684;32;20079;-72